sensor_id;sensor_type;location;lat;lon;timestamp;P1;durP1;ratioP1;P2;durP2;ratioP2
31514;SDS011;40526;52.088;17.020;2023-02-07T00:04:41;157.52;;;63.58;;
31514;SDS011;40526;52.088;17.020;2023-02-07T00:09:43;125.07;;;50.65;;
31514;SDS011;40526;52.088;17.020;2023-02-07T00:14:48;160.05;;;63.60;;
31514;SDS011;40526;52.088;17.020;2023-02-07T00:19:50;114.35;;;48.10;;
31514;SDS011;40526;52.088;17.020;2023-02-07T00:24:53;107.80;;;47.53;;
31514;SDS011;40526;52.088;17.020;2023-02-07T00:29:57;116.53;;;46.83;;
31514;SDS011;40526;52.088;17.020;2023-02-07T00:34:59;125.85;;;49.47;;
31514;SDS011;40526;52.088;17.020;2023-02-07T00:40:03;128.20;;;50.15;;
31514;SDS011;40526;52.088;17.020;2023-02-07T00:45:08;114.95;;;48.30;;
31514;SDS011;40526;52.088;17.020;2023-02-07T00:50:11;117.13;;;45.42;;
31514;SDS011;40526;52.088;17.020;2023-02-07T00:55:14;108.78;;;46.17;;
31514;SDS011;40526;52.088;17.020;2023-02-07T01:00:20;122.22;;;46.38;;
31514;SDS011;40526;52.088;17.020;2023-02-07T01:05:23;121.93;;;51.28;;
31514;SDS011;40526;52.088;17.020;2023-02-07T01:10:26;130.45;;;54.22;;
31514;SDS011;40526;52.088;17.020;2023-02-07T01:15:32;124.65;;;51.25;;
31514;SDS011;40526;52.088;17.020;2023-02-07T01:20:37;138.40;;;53.30;;
31514;SDS011;40526;52.088;17.020;2023-02-07T01:25:39;137.20;;;55.88;;
31514;SDS011;40526;52.088;17.020;2023-02-07T01:30:45;140.25;;;55.70;;
31514;SDS011;40526;52.088;17.020;2023-02-07T01:35:47;130.38;;;53.78;;
31514;SDS011;40526;52.088;17.020;2023-02-07T01:40:50;129.98;;;51.88;;
31514;SDS011;40526;52.088;17.020;2023-02-07T01:45:54;126.88;;;50.50;;
31514;SDS011;40526;52.088;17.020;2023-02-07T01:50:57;129.27;;;55.22;;
31514;SDS011;40526;52.088;17.020;2023-02-07T01:56:03;128.75;;;53.28;;
31514;SDS011;40526;52.088;17.020;2023-02-07T02:01:12;142.48;;;54.08;;
31514;SDS011;40526;52.088;17.020;2023-02-07T02:06:19;149.82;;;57.45;;
31514;SDS011;40526;52.088;17.020;2023-02-07T02:11:30;153.95;;;57.95;;
31514;SDS011;40526;52.088;17.020;2023-02-07T02:16:58;132.25;;;53.30;;
31514;SDS011;40526;52.088;17.020;2023-02-07T02:22:31;124.90;;;53.33;;
31514;SDS011;40526;52.088;17.020;2023-02-07T02:28:06;135.63;;;55.30;;
31514;SDS011;40526;52.088;17.020;2023-02-07T02:33:28;148.80;;;60.90;;
31514;SDS011;40526;52.088;17.020;2023-02-07T02:38:44;121.80;;;50.45;;
31514;SDS011;40526;52.088;17.020;2023-02-07T02:43:53;129.60;;;50.83;;
31514;SDS011;40526;52.088;17.020;2023-02-07T02:49:01;126.25;;;47.50;;
31514;SDS011;40526;52.088;17.020;2023-02-07T03:10:30;139.75;;;53.53;;
31514;SDS011;40526;52.088;17.020;2023-02-07T03:15:43;122.25;;;49.60;;
31514;SDS011;40526;52.088;17.020;2023-02-07T03:20:51;141.85;;;54.28;;
31514;SDS011;40526;52.088;17.020;2023-02-07T03:25:58;134.65;;;52.63;;
31514;SDS011;40526;52.088;17.020;2023-02-07T03:31:04;140.95;;;54.92;;
31514;SDS011;40526;52.088;17.020;2023-02-07T03:36:10;146.23;;;57.17;;
31514;SDS011;40526;52.088;17.020;2023-02-07T03:41:20;136.10;;;53.00;;
31514;SDS011;40526;52.088;17.020;2023-02-07T03:46:31;144.60;;;55.30;;
31514;SDS011;40526;52.088;17.020;2023-02-07T03:51:37;138.02;;;53.65;;
31514;SDS011;40526;52.088;17.020;2023-02-07T03:56:40;135.77;;;54.60;;
31514;SDS011;40526;52.088;17.020;2023-02-07T04:01:43;134.77;;;55.63;;
31514;SDS011;40526;52.088;17.020;2023-02-07T04:06:45;136.40;;;50.03;;
31514;SDS011;40526;52.088;17.020;2023-02-07T04:11:49;145.82;;;58.08;;
31514;SDS011;40526;52.088;17.020;2023-02-07T04:16:52;128.88;;;51.10;;
31514;SDS011;40526;52.088;17.020;2023-02-07T04:21:54;137.20;;;54.28;;
31514;SDS011;40526;52.088;17.020;2023-02-07T04:26:58;121.18;;;50.13;;
31514;SDS011;40526;52.088;17.020;2023-02-07T04:32:00;127.50;;;52.67;;
31514;SDS011;40526;52.088;17.020;2023-02-07T04:37:03;138.90;;;53.13;;
31514;SDS011;40526;52.088;17.020;2023-02-07T04:42:07;121.90;;;50.60;;
31514;SDS011;40526;52.088;17.020;2023-02-07T04:47:09;116.45;;;43.88;;
31514;SDS011;40526;52.088;17.020;2023-02-07T04:52:11;115.05;;;47.55;;
31514;SDS011;40526;52.088;17.020;2023-02-07T04:57:15;116.72;;;45.78;;
31514;SDS011;40526;52.088;17.020;2023-02-07T05:02:18;121.32;;;48.53;;
31514;SDS011;40526;52.088;17.020;2023-02-07T05:07:20;117.78;;;46.22;;
31514;SDS011;40526;52.088;17.020;2023-02-07T05:12:24;124.18;;;46.05;;
31514;SDS011;40526;52.088;17.020;2023-02-07T05:17:26;110.22;;;46.50;;
31514;SDS011;40526;52.088;17.020;2023-02-07T05:22:29;127.20;;;48.90;;
31514;SDS011;40526;52.088;17.020;2023-02-07T05:27:33;113.90;;;46.72;;
31514;SDS011;40526;52.088;17.020;2023-02-07T05:32:36;112.88;;;45.60;;
31514;SDS011;40526;52.088;17.020;2023-02-07T05:37:56;118.55;;;47.55;;
31514;SDS011;40526;52.088;17.020;2023-02-07T05:43:00;116.00;;;46.70;;
31514;SDS011;40526;52.088;17.020;2023-02-07T05:48:02;110.13;;;43.63;;
31514;SDS011;40526;52.088;17.020;2023-02-07T05:53:05;108.70;;;46.72;;
31514;SDS011;40526;52.088;17.020;2023-02-07T05:58:10;119.72;;;49.90;;
31514;SDS011;40526;52.088;17.020;2023-02-07T06:03:12;123.20;;;49.47;;
31514;SDS011;40526;52.088;17.020;2023-02-07T06:08:15;128.40;;;50.38;;
31514;SDS011;40526;52.088;17.020;2023-02-07T06:13:21;130.13;;;50.67;;
31514;SDS011;40526;52.088;17.020;2023-02-07T06:18:24;116.30;;;47.67;;
31514;SDS011;40526;52.088;17.020;2023-02-07T06:23:27;115.65;;;46.22;;
31514;SDS011;40526;52.088;17.020;2023-02-07T06:28:32;114.57;;;46.30;;
31514;SDS011;40526;52.088;17.020;2023-02-07T06:33:34;111.35;;;47.58;;
31514;SDS011;40526;52.088;17.020;2023-02-07T06:38:38;109.88;;;48.05;;
31514;SDS011;40526;52.088;17.020;2023-02-07T06:43:41;124.15;;;49.85;;
31514;SDS011;40526;52.088;17.020;2023-02-07T06:48:44;143.60;;;56.95;;
31514;SDS011;40526;52.088;17.020;2023-02-07T06:53:46;135.10;;;54.90;;
31514;SDS011;40526;52.088;17.020;2023-02-07T06:58:50;125.88;;;51.97;;
31514;SDS011;40526;52.088;17.020;2023-02-07T07:03:52;103.20;;;42.78;;
31514;SDS011;40526;52.088;17.020;2023-02-07T07:08:55;97.88;;;42.42;;
31514;SDS011;40526;52.088;17.020;2023-02-07T07:13:58;107.85;;;45.67;;
31514;SDS011;40526;52.088;17.020;2023-02-07T07:19:02;108.68;;;43.78;;
31514;SDS011;40526;52.088;17.020;2023-02-07T07:24:04;101.35;;;43.75;;
31514;SDS011;40526;52.088;17.020;2023-02-07T07:29:08;115.25;;;56.42;;
31514;SDS011;40526;52.088;17.020;2023-02-07T07:34:11;144.38;;;78.95;;
31514;SDS011;40526;52.088;17.020;2023-02-07T07:39:13;153.00;;;83.18;;
31514;SDS011;40526;52.088;17.020;2023-02-07T07:44:17;102.43;;;49.63;;
31514;SDS011;40526;52.088;17.020;2023-02-07T07:49:20;89.20;;;41.58;;
31514;SDS011;40526;52.088;17.020;2023-02-07T07:54:23;91.68;;;40.78;;
31514;SDS011;40526;52.088;17.020;2023-02-07T07:59:31;93.45;;;38.45;;
31514;SDS011;40526;52.088;17.020;2023-02-07T08:04:33;93.40;;;42.28;;
31514;SDS011;40526;52.088;17.020;2023-02-07T08:09:36;107.13;;;45.30;;
31514;SDS011;40526;52.088;17.020;2023-02-07T08:14:42;118.50;;;49.75;;
31514;SDS011;40526;52.088;17.020;2023-02-07T08:19:44;113.68;;;47.00;;
31514;SDS011;40526;52.088;17.020;2023-02-07T08:24:47;124.13;;;50.83;;
31514;SDS011;40526;52.088;17.020;2023-02-07T08:29:50;107.63;;;46.97;;
31514;SDS011;40526;52.088;17.020;2023-02-07T08:34:53;103.00;;;44.22;;
31514;SDS011;40526;52.088;17.020;2023-02-07T08:39:56;90.15;;;42.28;;
31514;SDS011;40526;52.088;17.020;2023-02-07T08:45:02;111.53;;;46.30;;
31514;SDS011;40526;52.088;17.020;2023-02-07T08:50:06;150.10;;;61.28;;
31514;SDS011;40526;52.088;17.020;2023-02-07T08:55:09;126.18;;;51.92;;
31514;SDS011;40526;52.088;17.020;2023-02-07T09:00:14;137.18;;;58.08;;
31514;SDS011;40526;52.088;17.020;2023-02-07T09:05:17;130.70;;;59.30;;
31514;SDS011;40526;52.088;17.020;2023-02-07T09:10:19;102.97;;;47.55;;
31514;SDS011;40526;52.088;17.020;2023-02-07T09:15:23;96.80;;;43.80;;
31514;SDS011;40526;52.088;17.020;2023-02-07T09:20:25;108.28;;;46.97;;
31514;SDS011;40526;52.088;17.020;2023-02-07T09:25:27;112.22;;;47.47;;
31514;SDS011;40526;52.088;17.020;2023-02-07T09:30:31;107.10;;;49.85;;
31514;SDS011;40526;52.088;17.020;2023-02-07T09:35:35;110.32;;;50.22;;
31514;SDS011;40526;52.088;17.020;2023-02-07T09:40:38;119.38;;;52.50;;
31514;SDS011;40526;52.088;17.020;2023-02-07T09:45:44;128.70;;;55.97;;
31514;SDS011;40526;52.088;17.020;2023-02-07T09:50:50;134.10;;;58.97;;
31514;SDS011;40526;52.088;17.020;2023-02-07T09:55:55;142.20;;;64.07;;
31514;SDS011;40526;52.088;17.020;2023-02-07T10:01:01;138.18;;;61.88;;
31514;SDS011;40526;52.088;17.020;2023-02-07T10:06:10;138.73;;;67.13;;
31514;SDS011;40526;52.088;17.020;2023-02-07T10:11:18;119.80;;;55.65;;
31514;SDS011;40526;52.088;17.020;2023-02-07T10:16:38;121.75;;;53.00;;
31514;SDS011;40526;52.088;17.020;2023-02-07T10:22:08;99.57;;;46.28;;
31514;SDS011;40526;52.088;17.020;2023-02-07T10:27:21;100.18;;;47.80;;
31514;SDS011;40526;52.088;17.020;2023-02-07T10:32:32;87.20;;;41.78;;
31514;SDS011;40526;52.088;17.020;2023-02-07T10:37:37;85.07;;;41.40;;
31514;SDS011;40526;52.088;17.020;2023-02-07T10:42:39;101.07;;;46.67;;
31514;SDS011;40526;52.088;17.020;2023-02-07T10:47:46;111.38;;;53.47;;
31514;SDS011;40526;52.088;17.020;2023-02-07T10:52:49;91.28;;;42.67;;
31514;SDS011;40526;52.088;17.020;2023-02-07T10:57:53;113.00;;;49.45;;
31514;SDS011;40526;52.088;17.020;2023-02-07T11:03:01;99.72;;;46.83;;
31514;SDS011;40526;52.088;17.020;2023-02-07T11:08:05;100.10;;;44.10;;
31514;SDS011;40526;52.088;17.020;2023-02-07T11:13:19;99.25;;;44.38;;
31514;SDS011;40526;52.088;17.020;2023-02-07T11:18:27;78.43;;;36.65;;
31514;SDS011;40526;52.088;17.020;2023-02-07T11:23:36;68.53;;;34.78;;
31514;SDS011;40526;52.088;17.020;2023-02-07T11:28:44;97.82;;;43.47;;
31514;SDS011;40526;52.088;17.020;2023-02-07T11:33:48;77.60;;;36.17;;
31514;SDS011;40526;52.088;17.020;2023-02-07T11:38:53;85.05;;;41.30;;
31514;SDS011;40526;52.088;17.020;2023-02-07T11:43:57;81.18;;;38.38;;
31514;SDS011;40526;52.088;17.020;2023-02-07T11:49:03;83.88;;;40.40;;
31514;SDS011;40526;52.088;17.020;2023-02-07T11:54:08;76.03;;;36.25;;
31514;SDS011;40526;52.088;17.020;2023-02-07T11:59:14;84.82;;;38.88;;
31514;SDS011;40526;52.088;17.020;2023-02-07T12:04:20;91.60;;;42.33;;
31514;SDS011;40526;52.088;17.020;2023-02-07T12:09:30;92.95;;;43.70;;
31514;SDS011;40526;52.088;17.020;2023-02-07T12:14:36;84.90;;;37.75;;
31514;SDS011;40526;52.088;17.020;2023-02-07T12:19:48;73.10;;;35.50;;
31514;SDS011;40526;52.088;17.020;2023-02-07T12:24:54;77.00;;;36.88;;
31514;SDS011;40526;52.088;17.020;2023-02-07T12:30:03;86.20;;;36.47;;
31514;SDS011;40526;52.088;17.020;2023-02-07T12:35:14;78.07;;;35.88;;
31514;SDS011;40526;52.088;17.020;2023-02-07T12:40:25;75.30;;;34.72;;
31514;SDS011;40526;52.088;17.020;2023-02-07T12:45:39;76.93;;;35.57;;
31514;SDS011;40526;52.088;17.020;2023-02-07T12:50:57;79.43;;;37.88;;
31514;SDS011;40526;52.088;17.020;2023-02-07T12:56:18;80.45;;;37.97;;
31514;SDS011;40526;52.088;17.020;2023-02-07T13:01:29;75.95;;;36.03;;
31514;SDS011;40526;52.088;17.020;2023-02-07T13:06:39;78.28;;;35.08;;
31514;SDS011;40526;52.088;17.020;2023-02-07T13:11:49;73.13;;;34.53;;
31514;SDS011;40526;52.088;17.020;2023-02-07T13:17:02;71.95;;;34.10;;
31514;SDS011;40526;52.088;17.020;2023-02-07T13:22:26;72.45;;;34.35;;
31514;SDS011;40526;52.088;17.020;2023-02-07T13:27:33;71.18;;;32.83;;
31514;SDS011;40526;52.088;17.020;2023-02-07T13:32:37;61.28;;;30.42;;
31514;SDS011;40526;52.088;17.020;2023-02-07T13:37:43;59.22;;;27.85;;
31514;SDS011;40526;52.088;17.020;2023-02-07T13:42:53;56.10;;;27.52;;
31514;SDS011;40526;52.088;17.020;2023-02-07T13:48:02;63.92;;;30.65;;
31514;SDS011;40526;52.088;17.020;2023-02-07T13:53:19;60.30;;;27.65;;
31514;SDS011;40526;52.088;17.020;2023-02-07T14:04:10;55.53;;;26.90;;
31514;SDS011;40526;52.088;17.020;2023-02-07T14:09:16;51.72;;;26.05;;
31514;SDS011;40526;52.088;17.020;2023-02-07T14:14:23;51.00;;;25.98;;
31514;SDS011;40526;52.088;17.020;2023-02-07T14:19:47;62.17;;;28.58;;
31514;SDS011;40526;52.088;17.020;2023-02-07T14:30:25;52.75;;;26.38;;
31514;SDS011;40526;52.088;17.020;2023-02-07T14:35:31;51.72;;;25.52;;
31514;SDS011;40526;52.088;17.020;2023-02-07T14:40:47;48.50;;;25.58;;
31514;SDS011;40526;52.088;17.020;2023-02-07T14:45:59;55.20;;;27.90;;
31514;SDS011;40526;52.088;17.020;2023-02-07T14:51:05;58.05;;;26.70;;
31514;SDS011;40526;52.088;17.020;2023-02-07T14:56:19;58.17;;;28.15;;
31514;SDS011;40526;52.088;17.020;2023-02-07T15:01:31;54.83;;;27.27;;
31514;SDS011;40526;52.088;17.020;2023-02-07T15:06:35;48.22;;;25.63;;
31514;SDS011;40526;52.088;17.020;2023-02-07T15:11:43;51.30;;;27.35;;
31514;SDS011;40526;52.088;17.020;2023-02-07T15:16:45;68.75;;;33.88;;
31514;SDS011;40526;52.088;17.020;2023-02-07T15:21:48;104.80;;;53.22;;
31514;SDS011;40526;52.088;17.020;2023-02-07T15:26:53;67.88;;;35.55;;
31514;SDS011;40526;52.088;17.020;2023-02-07T15:31:57;64.95;;;33.13;;
31514;SDS011;40526;52.088;17.020;2023-02-07T15:37:11;60.80;;;31.50;;
31514;SDS011;40526;52.088;17.020;2023-02-07T15:42:16;51.00;;;27.33;;
31514;SDS011;40526;52.088;17.020;2023-02-07T15:47:29;51.75;;;25.35;;
31514;SDS011;40526;52.088;17.020;2023-02-07T15:52:36;49.78;;;25.60;;
31514;SDS011;40526;52.088;17.020;2023-02-07T15:57:43;56.15;;;26.90;;
31514;SDS011;40526;52.088;17.020;2023-02-07T16:02:54;51.05;;;25.95;;
31514;SDS011;40526;52.088;17.020;2023-02-07T16:07:58;63.58;;;30.00;;
31514;SDS011;40526;52.088;17.020;2023-02-07T16:13:02;71.30;;;33.78;;
31514;SDS011;40526;52.088;17.020;2023-02-07T16:23:36;69.05;;;33.53;;
31514;SDS011;40526;52.088;17.020;2023-02-07T16:28:40;79.80;;;36.85;;
31514;SDS011;40526;52.088;17.020;2023-02-07T16:33:43;79.40;;;38.13;;
31514;SDS011;40526;52.088;17.020;2023-02-07T16:38:46;77.72;;;36.78;;
31514;SDS011;40526;52.088;17.020;2023-02-07T16:43:49;81.70;;;40.47;;
31514;SDS011;40526;52.088;17.020;2023-02-07T16:48:51;74.70;;;36.72;;
31514;SDS011;40526;52.088;17.020;2023-02-07T16:53:54;76.38;;;36.65;;
31514;SDS011;40526;52.088;17.020;2023-02-07T16:58:58;73.25;;;36.33;;
31514;SDS011;40526;52.088;17.020;2023-02-07T17:04:00;72.38;;;36.38;;
31514;SDS011;40526;52.088;17.020;2023-02-07T17:09:04;79.18;;;35.67;;
31514;SDS011;40526;52.088;17.020;2023-02-07T17:14:15;80.75;;;36.67;;
31514;SDS011;40526;52.088;17.020;2023-02-07T17:19:18;79.60;;;37.13;;
31514;SDS011;40526;52.088;17.020;2023-02-07T17:24:22;76.93;;;37.67;;
31514;SDS011;40526;52.088;17.020;2023-02-07T17:29:26;77.28;;;37.35;;
31514;SDS011;40526;52.088;17.020;2023-02-07T17:34:29;89.07;;;44.00;;
31514;SDS011;40526;52.088;17.020;2023-02-07T17:39:32;101.82;;;43.20;;
31514;SDS011;40526;52.088;17.020;2023-02-07T17:44:37;109.47;;;47.97;;
31514;SDS011;40526;52.088;17.020;2023-02-07T17:49:40;114.85;;;46.80;;
31514;SDS011;40526;52.088;17.020;2023-02-07T17:54:42;113.28;;;51.22;;
31514;SDS011;40526;52.088;17.020;2023-02-07T17:59:46;102.00;;;44.40;;
31514;SDS011;40526;52.088;17.020;2023-02-07T18:04:49;102.18;;;44.45;;
31514;SDS011;40526;52.088;17.020;2023-02-07T18:09:51;101.00;;;47.72;;
31514;SDS011;40526;52.088;17.020;2023-02-07T18:14:56;122.32;;;50.35;;
31514;SDS011;40526;52.088;17.020;2023-02-07T18:19:58;123.20;;;56.10;;
31514;SDS011;40526;52.088;17.020;2023-02-07T18:25:00;116.55;;;53.30;;
31514;SDS011;40526;52.088;17.020;2023-02-07T18:30:05;164.85;;;65.07;;
31514;SDS011;40526;52.088;17.020;2023-02-07T18:35:09;157.05;;;63.55;;
31514;SDS011;40526;52.088;17.020;2023-02-07T18:40:11;120.30;;;50.95;;
31514;SDS011;40526;52.088;17.020;2023-02-07T18:45:16;126.82;;;56.55;;
31514;SDS011;40526;52.088;17.020;2023-02-07T18:50:18;150.40;;;66.63;;
31514;SDS011;40526;52.088;17.020;2023-02-07T18:55:21;180.35;;;71.90;;
31514;SDS011;40526;52.088;17.020;2023-02-07T19:00:31;168.10;;;67.88;;
31514;SDS011;40526;52.088;17.020;2023-02-07T19:05:33;114.63;;;52.72;;
31514;SDS011;40526;52.088;17.020;2023-02-07T19:10:37;111.13;;;54.70;;
31514;SDS011;40526;52.088;17.020;2023-02-07T19:15:42;59.05;;;29.45;;
31514;SDS011;40526;52.088;17.020;2023-02-07T19:20:45;53.05;;;26.67;;
31514;SDS011;40526;52.088;17.020;2023-02-07T19:25:48;68.45;;;32.85;;
31514;SDS011;40526;52.088;17.020;2023-02-07T19:30:52;57.15;;;26.15;;
31514;SDS011;40526;52.088;17.020;2023-02-07T19:35:55;56.33;;;27.23;;
31514;SDS011;40526;52.088;17.020;2023-02-07T19:40:57;53.50;;;27.00;;
31514;SDS011;40526;52.088;17.020;2023-02-07T19:46:03;56.08;;;26.52;;
31514;SDS011;40526;52.088;17.020;2023-02-07T19:51:13;49.30;;;24.98;;
31514;SDS011;40526;52.088;17.020;2023-02-07T19:56:18;43.67;;;21.55;;
31514;SDS011;40526;52.088;17.020;2023-02-07T20:01:24;39.45;;;19.67;;
31514;SDS011;40526;52.088;17.020;2023-02-07T20:06:27;37.28;;;18.85;;
31514;SDS011;40526;52.088;17.020;2023-02-07T20:11:32;88.90;;;33.78;;
31514;SDS011;40526;52.088;17.020;2023-02-07T20:16:36;91.70;;;38.38;;
31514;SDS011;40526;52.088;17.020;2023-02-07T20:21:39;60.53;;;29.10;;
31514;SDS011;40526;52.088;17.020;2023-02-07T20:26:42;35.05;;;18.33;;
31514;SDS011;40526;52.088;17.020;2023-02-07T20:31:47;29.67;;;16.92;;
31514;SDS011;40526;52.088;17.020;2023-02-07T20:36:52;133.05;;;57.97;;
31514;SDS011;40526;52.088;17.020;2023-02-07T20:41:54;84.47;;;41.33;;
31514;SDS011;40526;52.088;17.020;2023-02-07T20:46:59;53.05;;;27.40;;
31514;SDS011;40526;52.088;17.020;2023-02-07T20:52:03;35.13;;;19.50;;
31514;SDS011;40526;52.088;17.020;2023-02-07T20:57:06;33.42;;;19.33;;
31514;SDS011;40526;52.088;17.020;2023-02-07T21:02:11;38.08;;;18.92;;
31514;SDS011;40526;52.088;17.020;2023-02-07T21:07:13;35.45;;;19.70;;
31514;SDS011;40526;52.088;17.020;2023-02-07T21:12:16;36.00;;;20.27;;
31514;SDS011;40526;52.088;17.020;2023-02-07T21:17:21;33.80;;;17.40;;
31514;SDS011;40526;52.088;17.020;2023-02-07T21:22:26;31.67;;;18.77;;
31514;SDS011;40526;52.088;17.020;2023-02-07T21:27:28;97.20;;;41.75;;
31514;SDS011;40526;52.088;17.020;2023-02-07T21:32:35;76.70;;;33.72;;
31514;SDS011;40526;52.088;17.020;2023-02-07T21:37:37;112.05;;;49.33;;
31514;SDS011;40526;52.088;17.020;2023-02-07T21:42:40;55.33;;;28.90;;
31514;SDS011;40526;52.088;17.020;2023-02-07T21:47:47;77.63;;;35.97;;
31514;SDS011;40526;52.088;17.020;2023-02-07T21:52:49;48.78;;;24.77;;
31514;SDS011;40526;52.088;17.020;2023-02-07T21:57:52;59.00;;;26.52;;
31514;SDS011;40526;52.088;17.020;2023-02-07T22:02:55;59.13;;;28.55;;
31514;SDS011;40526;52.088;17.020;2023-02-07T22:07:58;47.95;;;23.25;;
31514;SDS011;40526;52.088;17.020;2023-02-07T22:13:01;62.85;;;28.52;;
31514;SDS011;40526;52.088;17.020;2023-02-07T22:18:04;50.33;;;25.52;;
31514;SDS011;40526;52.088;17.020;2023-02-07T22:23:08;51.92;;;23.35;;
31514;SDS011;40526;52.088;17.020;2023-02-07T22:28:11;49.13;;;24.45;;
31514;SDS011;40526;52.088;17.020;2023-02-07T22:33:16;66.55;;;28.73;;
31514;SDS011;40526;52.088;17.020;2023-02-07T22:38:18;61.10;;;26.98;;
31514;SDS011;40526;52.088;17.020;2023-02-07T22:43:21;54.80;;;26.05;;
31514;SDS011;40526;52.088;17.020;2023-02-07T22:48:25;65.93;;;29.17;;
31514;SDS011;40526;52.088;17.020;2023-02-07T22:53:27;63.10;;;28.15;;
31514;SDS011;40526;52.088;17.020;2023-02-07T22:58:30;56.22;;;26.52;;
31514;SDS011;40526;52.088;17.020;2023-02-07T23:03:36;60.00;;;28.60;;
31514;SDS011;40526;52.088;17.020;2023-02-07T23:08:38;63.33;;;30.52;;
31514;SDS011;40526;52.088;17.020;2023-02-07T23:13:40;68.45;;;30.70;;
31514;SDS011;40526;52.088;17.020;2023-02-07T23:18:45;76.07;;;33.65;;
31514;SDS011;40526;52.088;17.020;2023-02-07T23:23:49;89.93;;;38.55;;
31514;SDS011;40526;52.088;17.020;2023-02-07T23:28:52;80.95;;;35.17;;
31514;SDS011;40526;52.088;17.020;2023-02-07T23:33:57;68.97;;;31.83;;
31514;SDS011;40526;52.088;17.020;2023-02-07T23:39:00;63.30;;;27.08;;
31514;SDS011;40526;52.088;17.020;2023-02-07T23:44:03;72.65;;;30.80;;
31514;SDS011;40526;52.088;17.020;2023-02-07T23:49:09;70.50;;;31.52;;
31514;SDS011;40526;52.088;17.020;2023-02-07T23:54:12;63.35;;;30.88;;
31514;SDS011;40526;52.088;17.020;2023-02-07T23:59:15;63.25;;;31.50;;
